sensor_id;sensor_type;location;lat;lon;timestamp;P1;durP1;ratioP1;P2;durP2;ratioP2
77018;SDS011;66044;53.142;17.962;2023-03-01T00:03:33;52.30;;;20.50;;
77018;SDS011;66044;53.142;17.962;2023-03-01T00:06:00;52.40;;;20.90;;
77018;SDS011;66044;53.142;17.962;2023-03-01T00:08:28;52.70;;;21.30;;
77018;SDS011;66044;53.142;17.962;2023-03-01T00:13:31;46.10;;;20.60;;
77018;SDS011;66044;53.142;17.962;2023-03-01T00:15:58;43.90;;;18.90;;
77018;SDS011;66044;53.142;17.962;2023-03-01T00:18:27;49.90;;;21.40;;
77018;SDS011;66044;53.142;17.962;2023-03-01T00:20:54;45.00;;;21.30;;
77018;SDS011;66044;53.142;17.962;2023-03-01T00:23:22;46.60;;;20.90;;
77018;SDS011;66044;53.142;17.962;2023-03-01T00:25:49;51.40;;;23.70;;
77018;SDS011;66044;53.142;17.962;2023-03-01T00:28:16;48.60;;;21.50;;
77018;SDS011;66044;53.142;17.962;2023-03-01T00:30:43;56.50;;;25.20;;
77018;SDS011;66044;53.142;17.962;2023-03-01T00:33:11;60.40;;;25.90;;
77018;SDS011;66044;53.142;17.962;2023-03-01T00:35:37;39.00;;;17.70;;
77018;SDS011;66044;53.142;17.962;2023-03-01T00:38:04;49.00;;;19.90;;
77018;SDS011;66044;53.142;17.962;2023-03-01T00:40:32;61.50;;;24.60;;
77018;SDS011;66044;53.142;17.962;2023-03-01T00:43:00;71.40;;;27.90;;
77018;SDS011;66044;53.142;17.962;2023-03-01T00:45:27;75.10;;;25.40;;
77018;SDS011;66044;53.142;17.962;2023-03-01T00:47:54;67.30;;;25.80;;
77018;SDS011;66044;53.142;17.962;2023-03-01T00:50:20;58.80;;;24.30;;
77018;SDS011;66044;53.142;17.962;2023-03-01T00:52:51;64.90;;;25.30;;
77018;SDS011;66044;53.142;17.962;2023-03-01T00:55:19;59.90;;;22.20;;
77018;SDS011;66044;53.142;17.962;2023-03-01T00:57:45;51.30;;;18.70;;
77018;SDS011;66044;53.142;17.962;2023-03-01T01:00:12;56.80;;;21.80;;
77018;SDS011;66044;53.142;17.962;2023-03-01T01:02:39;64.10;;;23.40;;
77018;SDS011;66044;53.142;17.962;2023-03-01T01:05:05;64.90;;;25.60;;
77018;SDS011;66044;53.142;17.962;2023-03-01T01:07:35;61.60;;;21.80;;
77018;SDS011;66044;53.142;17.962;2023-03-01T01:10:02;58.00;;;22.20;;
77018;SDS011;66044;53.142;17.962;2023-03-01T01:12:29;60.30;;;22.20;;
77018;SDS011;66044;53.142;17.962;2023-03-01T01:14:55;54.90;;;22.40;;
77018;SDS011;66044;53.142;17.962;2023-03-01T01:17:22;48.80;;;19.80;;
77018;SDS011;66044;53.142;17.962;2023-03-01T01:19:49;54.60;;;20.80;;
77018;SDS011;66044;53.142;17.962;2023-03-01T01:22:15;65.00;;;24.00;;
77018;SDS011;66044;53.142;17.962;2023-03-01T01:24:41;72.00;;;26.60;;
77018;SDS011;66044;53.142;17.962;2023-03-01T01:27:08;67.40;;;25.50;;
77018;SDS011;66044;53.142;17.962;2023-03-01T01:29:35;67.30;;;25.20;;
77018;SDS011;66044;53.142;17.962;2023-03-01T01:32:02;57.00;;;23.30;;
77018;SDS011;66044;53.142;17.962;2023-03-01T01:34:29;58.00;;;22.50;;
77018;SDS011;66044;53.142;17.962;2023-03-01T01:36:55;61.40;;;25.90;;
77018;SDS011;66044;53.142;17.962;2023-03-01T01:39:22;59.80;;;25.20;;
77018;SDS011;66044;53.142;17.962;2023-03-01T01:41:49;50.20;;;23.30;;
77018;SDS011;66044;53.142;17.962;2023-03-01T01:47:01;56.90;;;22.00;;
77018;SDS011;66044;53.142;17.962;2023-03-01T01:49:32;73.10;;;26.90;;
77018;SDS011;66044;53.142;17.962;2023-03-01T01:52:01;61.30;;;24.20;;
77018;SDS011;66044;53.142;17.962;2023-03-01T01:54:37;63.40;;;24.00;;
77018;SDS011;66044;53.142;17.962;2023-03-01T01:57:09;53.80;;;23.00;;
77018;SDS011;66044;53.142;17.962;2023-03-01T01:59:40;55.10;;;21.20;;
77018;SDS011;66044;53.142;17.962;2023-03-01T02:02:11;50.30;;;21.60;;
77018;SDS011;66044;53.142;17.962;2023-03-01T02:04:38;53.00;;;20.40;;
77018;SDS011;66044;53.142;17.962;2023-03-01T02:09:47;51.90;;;19.80;;
77018;SDS011;66044;53.142;17.962;2023-03-01T02:12:16;55.10;;;22.30;;
77018;SDS011;66044;53.142;17.962;2023-03-01T02:14:45;54.00;;;22.40;;
77018;SDS011;66044;53.142;17.962;2023-03-01T02:17:12;54.50;;;21.80;;
77018;SDS011;66044;53.142;17.962;2023-03-01T02:19:54;56.60;;;21.60;;
77018;SDS011;66044;53.142;17.962;2023-03-01T02:22:33;51.70;;;20.90;;
77018;SDS011;66044;53.142;17.962;2023-03-01T02:30:36;53.30;;;21.60;;
77018;SDS011;66044;53.142;17.962;2023-03-01T02:33:03;56.20;;;22.80;;
77018;SDS011;66044;53.142;17.962;2023-03-01T02:35:37;57.90;;;23.10;;
77018;SDS011;66044;53.142;17.962;2023-03-01T02:38:06;51.20;;;19.30;;
77018;SDS011;66044;53.142;17.962;2023-03-01T02:40:34;56.60;;;23.20;;
77018;SDS011;66044;53.142;17.962;2023-03-01T02:43:04;49.80;;;19.80;;
77018;SDS011;66044;53.142;17.962;2023-03-01T02:45:34;59.80;;;21.40;;
77018;SDS011;66044;53.142;17.962;2023-03-01T02:48:01;58.40;;;23.10;;
77018;SDS011;66044;53.142;17.962;2023-03-01T02:53:08;57.20;;;23.80;;
77018;SDS011;66044;53.142;17.962;2023-03-01T02:55:41;55.40;;;21.00;;
77018;SDS011;66044;53.142;17.962;2023-03-01T02:58:07;47.60;;;19.10;;
77018;SDS011;66044;53.142;17.962;2023-03-01T03:00:38;52.20;;;22.00;;
77018;SDS011;66044;53.142;17.962;2023-03-01T03:03:12;37.80;;;16.50;;
77018;SDS011;66044;53.142;17.962;2023-03-01T03:05:41;40.10;;;19.60;;
77018;SDS011;66044;53.142;17.962;2023-03-01T03:08:07;41.20;;;19.10;;
77018;SDS011;66044;53.142;17.962;2023-03-01T03:10:36;42.30;;;19.40;;
77018;SDS011;66044;53.142;17.962;2023-03-01T03:13:07;33.60;;;15.80;;
77018;SDS011;66044;53.142;17.962;2023-03-01T03:15:39;43.60;;;17.60;;
77018;SDS011;66044;53.142;17.962;2023-03-01T03:18:08;43.70;;;17.80;;
77018;SDS011;66044;53.142;17.962;2023-03-01T03:20:37;49.50;;;20.90;;
77018;SDS011;66044;53.142;17.962;2023-03-01T03:23:07;47.20;;;19.40;;
77018;SDS011;66044;53.142;17.962;2023-03-01T03:25:33;42.40;;;18.50;;
77018;SDS011;66044;53.142;17.962;2023-03-01T03:28:04;44.60;;;19.20;;
77018;SDS011;66044;53.142;17.962;2023-03-01T03:30:36;47.30;;;21.00;;
77018;SDS011;66044;53.142;17.962;2023-03-01T03:33:05;49.10;;;19.50;;
77018;SDS011;66044;53.142;17.962;2023-03-01T03:35:33;38.10;;;16.90;;
77018;SDS011;66044;53.142;17.962;2023-03-01T03:38:06;42.70;;;18.90;;
77018;SDS011;66044;53.142;17.962;2023-03-01T03:40:42;42.60;;;18.30;;
77018;SDS011;66044;53.142;17.962;2023-03-01T03:43:12;38.30;;;16.00;;
77018;SDS011;66044;53.142;17.962;2023-03-01T03:45:41;44.10;;;18.30;;
77018;SDS011;66044;53.142;17.962;2023-03-01T03:48:09;41.50;;;18.30;;
77018;SDS011;66044;53.142;17.962;2023-03-01T03:50:37;46.10;;;19.30;;
77018;SDS011;66044;53.142;17.962;2023-03-01T03:53:06;46.50;;;19.90;;
77018;SDS011;66044;53.142;17.962;2023-03-01T03:55:35;55.80;;;20.70;;
77018;SDS011;66044;53.142;17.962;2023-03-01T03:58:05;44.80;;;18.60;;
77018;SDS011;66044;53.142;17.962;2023-03-01T04:00:35;50.60;;;21.20;;
77018;SDS011;66044;53.142;17.962;2023-03-01T04:03:04;50.60;;;19.60;;
77018;SDS011;66044;53.142;17.962;2023-03-01T04:05:32;47.80;;;20.20;;
77018;SDS011;66044;53.142;17.962;2023-03-01T04:07:58;47.40;;;20.20;;
77018;SDS011;66044;53.142;17.962;2023-03-01T04:10:32;47.80;;;19.10;;
77018;SDS011;66044;53.142;17.962;2023-03-01T04:13:02;44.90;;;18.80;;
77018;SDS011;66044;53.142;17.962;2023-03-01T04:15:30;37.90;;;15.00;;
77018;SDS011;66044;53.142;17.962;2023-03-01T04:17:57;39.60;;;16.90;;
77018;SDS011;66044;53.142;17.962;2023-03-01T04:20:26;41.40;;;18.50;;
77018;SDS011;66044;53.142;17.962;2023-03-01T04:25:37;39.60;;;16.80;;
77018;SDS011;66044;53.142;17.962;2023-03-01T04:28:09;35.70;;;16.50;;
77018;SDS011;66044;53.142;17.962;2023-03-01T04:30:36;37.30;;;16.80;;
77018;SDS011;66044;53.142;17.962;2023-03-01T04:33:07;42.30;;;17.20;;
77018;SDS011;66044;53.142;17.962;2023-03-01T04:35:36;37.00;;;15.30;;
77018;SDS011;66044;53.142;17.962;2023-03-01T04:38:03;45.80;;;19.00;;
77018;SDS011;66044;53.142;17.962;2023-03-01T04:40:31;47.20;;;19.20;;
77018;SDS011;66044;53.142;17.962;2023-03-01T04:42:57;40.30;;;17.20;;
77018;SDS011;66044;53.142;17.962;2023-03-01T04:45:24;37.70;;;16.00;;
77018;SDS011;66044;53.142;17.962;2023-03-01T04:47:50;40.80;;;16.00;;
77018;SDS011;66044;53.142;17.962;2023-03-01T04:50:18;37.20;;;16.00;;
77018;SDS011;66044;53.142;17.962;2023-03-01T04:52:49;57.70;;;21.40;;
77018;SDS011;66044;53.142;17.962;2023-03-01T04:55:16;39.30;;;16.90;;
77018;SDS011;66044;53.142;17.962;2023-03-01T04:57:42;60.90;;;21.10;;
77018;SDS011;66044;53.142;17.962;2023-03-01T05:00:13;35.70;;;15.00;;
77018;SDS011;66044;53.142;17.962;2023-03-01T05:02:56;41.40;;;18.20;;
77018;SDS011;66044;53.142;17.962;2023-03-01T05:05:33;30.30;;;14.00;;
77018;SDS011;66044;53.142;17.962;2023-03-01T05:08:03;48.10;;;17.80;;
77018;SDS011;66044;53.142;17.962;2023-03-01T05:10:32;52.60;;;19.70;;
77018;SDS011;66044;53.142;17.962;2023-03-01T05:13:01;45.00;;;18.10;;
77018;SDS011;66044;53.142;17.962;2023-03-01T05:15:30;49.40;;;19.60;;
77018;SDS011;66044;53.142;17.962;2023-03-01T05:17:57;51.60;;;22.70;;
77018;SDS011;66044;53.142;17.962;2023-03-01T05:20:26;54.40;;;21.80;;
77018;SDS011;66044;53.142;17.962;2023-03-01T05:22:55;58.60;;;21.00;;
77018;SDS011;66044;53.142;17.962;2023-03-01T05:25:23;52.80;;;21.70;;
77018;SDS011;66044;53.142;17.962;2023-03-01T05:27:49;58.90;;;24.00;;
77018;SDS011;66044;53.142;17.962;2023-03-01T05:30:16;59.30;;;25.20;;
77018;SDS011;66044;53.142;17.962;2023-03-01T05:32:44;52.30;;;23.20;;
77018;SDS011;66044;53.142;17.962;2023-03-01T05:35:13;61.30;;;23.10;;
77018;SDS011;66044;53.142;17.962;2023-03-01T05:37:42;50.10;;;21.90;;
77018;SDS011;66044;53.142;17.962;2023-03-01T05:40:11;46.30;;;20.40;;
77018;SDS011;66044;53.142;17.962;2023-03-01T05:42:47;38.50;;;18.80;;
77018;SDS011;66044;53.142;17.962;2023-03-01T05:45:15;41.10;;;18.70;;
77018;SDS011;66044;53.142;17.962;2023-03-01T05:47:43;52.00;;;22.60;;
77018;SDS011;66044;53.142;17.962;2023-03-01T05:50:16;54.10;;;24.20;;
77018;SDS011;66044;53.142;17.962;2023-03-01T05:52:59;63.50;;;24.80;;
77018;SDS011;66044;53.142;17.962;2023-03-01T05:55:31;64.50;;;24.20;;
77018;SDS011;66044;53.142;17.962;2023-03-01T05:58:04;56.40;;;23.00;;
77018;SDS011;66044;53.142;17.962;2023-03-01T06:00:33;54.70;;;23.50;;
77018;SDS011;66044;53.142;17.962;2023-03-01T06:02:59;52.80;;;21.40;;
77018;SDS011;66044;53.142;17.962;2023-03-01T06:05:26;43.90;;;18.80;;
77018;SDS011;66044;53.142;17.962;2023-03-01T06:07:53;44.80;;;19.50;;
77018;SDS011;66044;53.142;17.962;2023-03-01T06:10:21;43.30;;;18.50;;
77018;SDS011;66044;53.142;17.962;2023-03-01T06:12:48;44.80;;;17.60;;
77018;SDS011;66044;53.142;17.962;2023-03-01T06:15:15;34.10;;;14.30;;
77018;SDS011;66044;53.142;17.962;2023-03-01T06:17:43;24.90;;;12.50;;
77018;SDS011;66044;53.142;17.962;2023-03-01T06:20:12;31.50;;;13.20;;
77018;SDS011;66044;53.142;17.962;2023-03-01T06:22:41;32.20;;;15.40;;
77018;SDS011;66044;53.142;17.962;2023-03-01T06:25:09;34.30;;;15.60;;
77018;SDS011;66044;53.142;17.962;2023-03-01T06:27:36;33.60;;;15.00;;
77018;SDS011;66044;53.142;17.962;2023-03-01T06:30:02;28.30;;;12.80;;
77018;SDS011;66044;53.142;17.962;2023-03-01T06:32:29;28.60;;;13.70;;
77018;SDS011;66044;53.142;17.962;2023-03-01T06:34:57;31.20;;;13.30;;
77018;SDS011;66044;53.142;17.962;2023-03-01T06:37:25;32.20;;;13.70;;
77018;SDS011;66044;53.142;17.962;2023-03-01T06:39:51;29.20;;;13.70;;
77018;SDS011;66044;53.142;17.962;2023-03-01T06:42:18;19.20;;;9.10;;
77018;SDS011;66044;53.142;17.962;2023-03-01T06:44:44;22.30;;;10.30;;
77018;SDS011;66044;53.142;17.962;2023-03-01T06:47:12;22.10;;;10.90;;
77018;SDS011;66044;53.142;17.962;2023-03-01T06:49:38;22.10;;;10.80;;
77018;SDS011;66044;53.142;17.962;2023-03-01T06:52:05;25.40;;;12.30;;
77018;SDS011;66044;53.142;17.962;2023-03-01T06:54:31;27.30;;;12.00;;
77018;SDS011;66044;53.142;17.962;2023-03-01T06:56:58;23.80;;;11.50;;
77018;SDS011;66044;53.142;17.962;2023-03-01T06:59:24;17.20;;;8.10;;
77018;SDS011;66044;53.142;17.962;2023-03-01T07:01:50;26.70;;;13.30;;
77018;SDS011;66044;53.142;17.962;2023-03-01T07:04:17;28.10;;;14.10;;
77018;SDS011;66044;53.142;17.962;2023-03-01T07:06:43;30.70;;;13.30;;
77018;SDS011;66044;53.142;17.962;2023-03-01T07:09:10;30.50;;;12.70;;
77018;SDS011;66044;53.142;17.962;2023-03-01T07:11:36;27.40;;;12.50;;
77018;SDS011;66044;53.142;17.962;2023-03-01T07:14:03;23.80;;;11.40;;
77018;SDS011;66044;53.142;17.962;2023-03-01T07:16:29;22.30;;;11.20;;
77018;SDS011;66044;53.142;17.962;2023-03-01T07:18:56;24.80;;;10.10;;
77018;SDS011;66044;53.142;17.962;2023-03-01T07:21:22;22.60;;;11.40;;
77018;SDS011;66044;53.142;17.962;2023-03-01T07:23:49;23.70;;;12.00;;
77018;SDS011;66044;53.142;17.962;2023-03-01T07:26:16;21.30;;;10.80;;
77018;SDS011;66044;53.142;17.962;2023-03-01T07:28:42;24.40;;;11.60;;
77018;SDS011;66044;53.142;17.962;2023-03-01T07:31:09;21.20;;;11.30;;
77018;SDS011;66044;53.142;17.962;2023-03-01T07:33:35;26.00;;;13.00;;
77018;SDS011;66044;53.142;17.962;2023-03-01T07:36:03;24.40;;;12.30;;
77018;SDS011;66044;53.142;17.962;2023-03-01T07:38:30;26.10;;;14.40;;
77018;SDS011;66044;53.142;17.962;2023-03-01T07:40:57;26.80;;;14.10;;
77018;SDS011;66044;53.142;17.962;2023-03-01T07:43:30;26.50;;;14.50;;
77018;SDS011;66044;53.142;17.962;2023-03-01T07:45:58;26.90;;;14.70;;
77018;SDS011;66044;53.142;17.962;2023-03-01T07:48:26;25.30;;;13.50;;
77018;SDS011;66044;53.142;17.962;2023-03-01T07:50:53;23.90;;;12.80;;
77018;SDS011;66044;53.142;17.962;2023-03-01T07:53:20;24.60;;;12.40;;
77018;SDS011;66044;53.142;17.962;2023-03-01T07:55:46;24.50;;;13.00;;
77018;SDS011;66044;53.142;17.962;2023-03-01T07:58:13;23.20;;;12.30;;
77018;SDS011;66044;53.142;17.962;2023-03-01T08:00:39;22.20;;;11.20;;
77018;SDS011;66044;53.142;17.962;2023-03-01T08:03:05;23.30;;;11.00;;
77018;SDS011;66044;53.142;17.962;2023-03-01T08:05:32;21.00;;;11.40;;
77018;SDS011;66044;53.142;17.962;2023-03-01T08:07:58;15.40;;;9.40;;
77018;SDS011;66044;53.142;17.962;2023-03-01T08:10:25;19.10;;;10.80;;
77018;SDS011;66044;53.142;17.962;2023-03-01T08:12:51;25.70;;;14.40;;
77018;SDS011;66044;53.142;17.962;2023-03-01T08:15:19;19.30;;;10.90;;
77018;SDS011;66044;53.142;17.962;2023-03-01T08:17:45;17.70;;;10.70;;
77018;SDS011;66044;53.142;17.962;2023-03-01T08:20:14;19.80;;;10.00;;
77018;SDS011;66044;53.142;17.962;2023-03-01T08:22:41;24.20;;;10.60;;
77018;SDS011;66044;53.142;17.962;2023-03-01T08:25:07;21.50;;;12.00;;
77018;SDS011;66044;53.142;17.962;2023-03-01T08:27:34;23.50;;;13.70;;
77018;SDS011;66044;53.142;17.962;2023-03-01T08:30:01;27.50;;;14.80;;
77018;SDS011;66044;53.142;17.962;2023-03-01T08:32:27;29.00;;;16.10;;
77018;SDS011;66044;53.142;17.962;2023-03-01T08:34:54;23.80;;;13.60;;
77018;SDS011;66044;53.142;17.962;2023-03-01T08:37:20;26.80;;;13.90;;
77018;SDS011;66044;53.142;17.962;2023-03-01T08:39:47;23.90;;;13.30;;
77018;SDS011;66044;53.142;17.962;2023-03-01T08:42:13;22.70;;;12.90;;
77018;SDS011;66044;53.142;17.962;2023-03-01T08:44:40;24.40;;;14.00;;
77018;SDS011;66044;53.142;17.962;2023-03-01T08:47:06;32.30;;;15.80;;
77018;SDS011;66044;53.142;17.962;2023-03-01T08:49:32;28.20;;;14.70;;
77018;SDS011;66044;53.142;17.962;2023-03-01T08:51:59;34.00;;;16.20;;
77018;SDS011;66044;53.142;17.962;2023-03-01T08:54:25;27.10;;;14.50;;
77018;SDS011;66044;53.142;17.962;2023-03-01T08:56:52;31.70;;;18.70;;
77018;SDS011;66044;53.142;17.962;2023-03-01T08:59:18;26.10;;;16.40;;
77018;SDS011;66044;53.142;17.962;2023-03-01T09:01:45;24.60;;;13.30;;
77018;SDS011;66044;53.142;17.962;2023-03-01T09:04:12;31.90;;;15.10;;
77018;SDS011;66044;53.142;17.962;2023-03-01T09:06:40;32.20;;;16.50;;
77018;SDS011;66044;53.142;17.962;2023-03-01T09:09:07;26.70;;;12.80;;
77018;SDS011;66044;53.142;17.962;2023-03-01T09:11:41;21.80;;;11.90;;
77018;SDS011;66044;53.142;17.962;2023-03-01T09:14:09;19.90;;;10.20;;
77018;SDS011;66044;53.142;17.962;2023-03-01T09:16:35;23.00;;;10.50;;
77018;SDS011;66044;53.142;17.962;2023-03-01T09:19:02;26.50;;;11.90;;
77018;SDS011;66044;53.142;17.962;2023-03-01T09:21:29;20.70;;;9.50;;
77018;SDS011;66044;53.142;17.962;2023-03-01T09:23:56;25.10;;;11.10;;
77018;SDS011;66044;53.142;17.962;2023-03-01T09:26:23;26.70;;;12.00;;
77018;SDS011;66044;53.142;17.962;2023-03-01T09:28:51;26.00;;;11.30;;
77018;SDS011;66044;53.142;17.962;2023-03-01T09:31:20;23.80;;;11.60;;
77018;SDS011;66044;53.142;17.962;2023-03-01T09:33:48;23.90;;;10.80;;
77018;SDS011;66044;53.142;17.962;2023-03-01T09:36:17;24.30;;;10.40;;
77018;SDS011;66044;53.142;17.962;2023-03-01T09:38:45;21.70;;;10.10;;
77018;SDS011;66044;53.142;17.962;2023-03-01T09:41:18;16.80;;;8.50;;
77018;SDS011;66044;53.142;17.962;2023-03-01T09:46:46;21.60;;;9.50;;
77018;SDS011;66044;53.142;17.962;2023-03-01T09:49:20;20.10;;;8.90;;
77018;SDS011;66044;53.142;17.962;2023-03-01T09:52:01;16.60;;;8.20;;
77018;SDS011;66044;53.142;17.962;2023-03-01T09:54:35;17.60;;;7.40;;
77018;SDS011;66044;53.142;17.962;2023-03-01T09:57:06;18.40;;;9.30;;
77018;SDS011;66044;53.142;17.962;2023-03-01T10:00:09;17.30;;;7.70;;
77018;SDS011;66044;53.142;17.962;2023-03-01T10:05:41;16.00;;;7.40;;
77018;SDS011;66044;53.142;17.962;2023-03-01T10:08:24;14.20;;;7.00;;
77018;SDS011;66044;53.142;17.962;2023-03-01T10:11:26;16.70;;;8.00;;
77018;SDS011;66044;53.142;17.962;2023-03-01T10:14:03;14.20;;;6.40;;
77018;SDS011;66044;53.142;17.962;2023-03-01T10:16:52;15.40;;;7.70;;
77018;SDS011;66044;53.142;17.962;2023-03-01T10:19:32;16.80;;;7.80;;
77018;SDS011;66044;53.142;17.962;2023-03-01T10:22:24;16.80;;;7.90;;
77018;SDS011;66044;53.142;17.962;2023-03-01T10:24:58;14.10;;;7.00;;
77018;SDS011;66044;53.142;17.962;2023-03-01T10:27:36;19.40;;;8.60;;
77018;SDS011;66044;53.142;17.962;2023-03-01T10:32:48;15.90;;;6.80;;
77018;SDS011;66044;53.142;17.962;2023-03-01T10:37:56;14.70;;;6.50;;
77018;SDS011;66044;53.142;17.962;2023-03-01T10:40:29;16.70;;;7.80;;
77018;SDS011;66044;53.142;17.962;2023-03-01T10:42:59;16.20;;;8.60;;
77018;SDS011;66044;53.142;17.962;2023-03-01T10:45:38;16.00;;;7.20;;
77018;SDS011;66044;53.142;17.962;2023-03-01T10:50:34;14.10;;;6.90;;
77018;SDS011;66044;53.142;17.962;2023-03-01T10:53:04;14.90;;;7.10;;
77018;SDS011;66044;53.142;17.962;2023-03-01T10:55:37;13.60;;;6.70;;
77018;SDS011;66044;53.142;17.962;2023-03-01T11:06:34;13.70;;;6.60;;
77018;SDS011;66044;53.142;17.962;2023-03-01T11:09:21;18.00;;;7.70;;
77018;SDS011;66044;53.142;17.962;2023-03-01T11:11:53;14.50;;;6.90;;
77018;SDS011;66044;53.142;17.962;2023-03-01T11:14:21;19.00;;;8.30;;
77018;SDS011;66044;53.142;17.962;2023-03-01T11:17:10;13.50;;;6.00;;
77018;SDS011;66044;53.142;17.962;2023-03-01T11:19:41;13.70;;;6.20;;
77018;SDS011;66044;53.142;17.962;2023-03-01T11:22:17;15.20;;;7.60;;
77018;SDS011;66044;53.142;17.962;2023-03-01T11:24:47;14.00;;;6.60;;
77018;SDS011;66044;53.142;17.962;2023-03-01T11:27:21;21.60;;;8.60;;
77018;SDS011;66044;53.142;17.962;2023-03-01T11:29:56;25.10;;;9.70;;
77018;SDS011;66044;53.142;17.962;2023-03-01T11:32:26;12.50;;;6.00;;
77018;SDS011;66044;53.142;17.962;2023-03-01T11:40:24;11.00;;;4.80;;
77018;SDS011;66044;53.142;17.962;2023-03-01T11:43:05;10.80;;;5.10;;
77018;SDS011;66044;53.142;17.962;2023-03-01T11:46:01;12.40;;;5.80;;
77018;SDS011;66044;53.142;17.962;2023-03-01T12:00:51;12.00;;;4.70;;
77018;SDS011;66044;53.142;17.962;2023-03-01T12:03:33;12.40;;;6.00;;
77018;SDS011;66044;53.142;17.962;2023-03-01T12:06:19;15.70;;;6.10;;
77018;SDS011;66044;53.142;17.962;2023-03-01T12:09:01;15.40;;;7.20;;
77018;SDS011;66044;53.142;17.962;2023-03-01T12:11:49;14.20;;;6.20;;
77018;SDS011;66044;53.142;17.962;2023-03-01T12:17:20;15.60;;;5.70;;
77018;SDS011;66044;53.142;17.962;2023-03-01T12:23:36;14.00;;;6.40;;
77018;SDS011;66044;53.142;17.962;2023-03-01T12:34:25;12.60;;;5.00;;
77018;SDS011;66044;53.142;17.962;2023-03-01T12:51:06;19.10;;;7.60;;
77018;SDS011;66044;53.142;17.962;2023-03-01T12:53:40;14.50;;;6.00;;
77018;SDS011;66044;53.142;17.962;2023-03-01T12:56:11;17.60;;;6.50;;
77018;SDS011;66044;53.142;17.962;2023-03-01T13:09:54;12.80;;;5.40;;
77018;SDS011;66044;53.142;17.962;2023-03-01T13:15:30;15.50;;;5.70;;
77018;SDS011;66044;53.142;17.962;2023-03-01T13:17:59;12.70;;;5.60;;
77018;SDS011;66044;53.142;17.962;2023-03-01T13:20:49;12.70;;;4.70;;
77018;SDS011;66044;53.142;17.962;2023-03-01T13:31:01;12.80;;;5.50;;
77018;SDS011;66044;53.142;17.962;2023-03-01T13:36:00;12.70;;;5.40;;
77018;SDS011;66044;53.142;17.962;2023-03-01T13:41:17;13.50;;;5.70;;
77018;SDS011;66044;53.142;17.962;2023-03-01T13:44:16;16.80;;;7.00;;
77018;SDS011;66044;53.142;17.962;2023-03-01T13:46:44;22.00;;;8.80;;
77018;SDS011;66044;53.142;17.962;2023-03-01T13:49:18;22.60;;;9.00;;
77018;SDS011;66044;53.142;17.962;2023-03-01T13:51:47;20.60;;;8.70;;
77018;SDS011;66044;53.142;17.962;2023-03-01T13:54:18;31.90;;;12.00;;
77018;SDS011;66044;53.142;17.962;2023-03-01T13:56:53;20.50;;;8.70;;
77018;SDS011;66044;53.142;17.962;2023-03-01T13:59:21;17.10;;;7.40;;
77018;SDS011;66044;53.142;17.962;2023-03-01T14:01:54;15.70;;;7.30;;
77018;SDS011;66044;53.142;17.962;2023-03-01T14:04:25;14.50;;;6.70;;
77018;SDS011;66044;53.142;17.962;2023-03-01T14:09:48;14.70;;;6.70;;
77018;SDS011;66044;53.142;17.962;2023-03-01T14:17:46;26.00;;;13.10;;
77018;SDS011;66044;53.142;17.962;2023-03-01T14:20:23;34.50;;;16.50;;
77018;SDS011;66044;53.142;17.962;2023-03-01T14:22:53;16.90;;;8.20;;
77018;SDS011;66044;53.142;17.962;2023-03-01T14:27:55;15.70;;;7.50;;
77018;SDS011;66044;53.142;17.962;2023-03-01T14:30:23;14.60;;;6.70;;
77018;SDS011;66044;53.142;17.962;2023-03-01T14:32:54;14.40;;;6.10;;
77018;SDS011;66044;53.142;17.962;2023-03-01T14:35:26;15.50;;;7.40;;
77018;SDS011;66044;53.142;17.962;2023-03-01T14:37:54;14.20;;;6.50;;
77018;SDS011;66044;53.142;17.962;2023-03-01T14:40:31;14.40;;;6.50;;
77018;SDS011;66044;53.142;17.962;2023-03-01T14:43:01;15.40;;;7.10;;
77018;SDS011;66044;53.142;17.962;2023-03-01T14:45:35;14.00;;;5.90;;
77018;SDS011;66044;53.142;17.962;2023-03-01T14:48:03;13.90;;;5.70;;
77018;SDS011;66044;53.142;17.962;2023-03-01T14:50:34;14.50;;;5.90;;
77018;SDS011;66044;53.142;17.962;2023-03-01T14:53:06;15.00;;;5.90;;
77018;SDS011;66044;53.142;17.962;2023-03-01T14:55:42;13.10;;;5.60;;
77018;SDS011;66044;53.142;17.962;2023-03-01T14:58:13;10.70;;;4.70;;
77018;SDS011;66044;53.142;17.962;2023-03-01T15:00:54;13.60;;;6.20;;
77018;SDS011;66044;53.142;17.962;2023-03-01T15:03:24;13.40;;;5.80;;
77018;SDS011;66044;53.142;17.962;2023-03-01T15:05:57;11.40;;;5.30;;
77018;SDS011;66044;53.142;17.962;2023-03-01T15:08:25;14.40;;;6.20;;
77018;SDS011;66044;53.142;17.962;2023-03-01T15:11:15;14.90;;;6.10;;
77018;SDS011;66044;53.142;17.962;2023-03-01T15:13:48;13.50;;;6.20;;
77018;SDS011;66044;53.142;17.962;2023-03-01T15:16:16;14.90;;;7.10;;
77018;SDS011;66044;53.142;17.962;2023-03-01T15:18:56;14.80;;;6.50;;
77018;SDS011;66044;53.142;17.962;2023-03-01T15:21:27;16.70;;;8.40;;
77018;SDS011;66044;53.142;17.962;2023-03-01T15:24:05;18.20;;;8.50;;
77018;SDS011;66044;53.142;17.962;2023-03-01T15:26:49;13.40;;;6.30;;
77018;SDS011;66044;53.142;17.962;2023-03-01T15:29:25;13.30;;;6.30;;
77018;SDS011;66044;53.142;17.962;2023-03-01T15:32:05;16.20;;;7.30;;
77018;SDS011;66044;53.142;17.962;2023-03-01T15:34:52;16.10;;;7.80;;
77018;SDS011;66044;53.142;17.962;2023-03-01T15:37:38;14.60;;;6.60;;
77018;SDS011;66044;53.142;17.962;2023-03-01T15:40:23;13.30;;;6.20;;
77018;SDS011;66044;53.142;17.962;2023-03-01T15:43:04;13.80;;;6.60;;
77018;SDS011;66044;53.142;17.962;2023-03-01T15:45:32;15.30;;;7.30;;
77018;SDS011;66044;53.142;17.962;2023-03-01T15:48:04;17.50;;;8.40;;
77018;SDS011;66044;53.142;17.962;2023-03-01T15:50:40;20.10;;;9.30;;
77018;SDS011;66044;53.142;17.962;2023-03-01T15:53:10;23.10;;;10.80;;
77018;SDS011;66044;53.142;17.962;2023-03-01T15:55:40;24.30;;;10.70;;
77018;SDS011;66044;53.142;17.962;2023-03-01T15:58:14;25.90;;;10.80;;
77018;SDS011;66044;53.142;17.962;2023-03-01T16:00:46;29.30;;;13.50;;
77018;SDS011;66044;53.142;17.962;2023-03-01T16:03:14;27.10;;;12.80;;
77018;SDS011;66044;53.142;17.962;2023-03-01T16:05:48;22.90;;;10.90;;
77018;SDS011;66044;53.142;17.962;2023-03-01T16:08:16;23.00;;;10.60;;
77018;SDS011;66044;53.142;17.962;2023-03-01T16:10:44;24.00;;;11.00;;
77018;SDS011;66044;53.142;17.962;2023-03-01T16:13:12;21.60;;;9.80;;
77018;SDS011;66044;53.142;17.962;2023-03-01T16:15:39;23.50;;;10.50;;
77018;SDS011;66044;53.142;17.962;2023-03-01T16:18:06;24.50;;;11.10;;
77018;SDS011;66044;53.142;17.962;2023-03-01T16:20:34;25.10;;;12.20;;
77018;SDS011;66044;53.142;17.962;2023-03-01T16:23:01;25.00;;;11.60;;
77018;SDS011;66044;53.142;17.962;2023-03-01T16:25:32;26.30;;;12.40;;
77018;SDS011;66044;53.142;17.962;2023-03-01T16:28:00;23.10;;;11.40;;
77018;SDS011;66044;53.142;17.962;2023-03-01T16:30:31;31.50;;;14.90;;
77018;SDS011;66044;53.142;17.962;2023-03-01T16:32:57;59.80;;;29.50;;
77018;SDS011;66044;53.142;17.962;2023-03-01T16:35:24;70.20;;;33.00;;
77018;SDS011;66044;53.142;17.962;2023-03-01T16:37:51;109.60;;;43.10;;
77018;SDS011;66044;53.142;17.962;2023-03-01T16:40:24;160.40;;;60.50;;